Terminal Aerodrome Forecast
Issued by NWS

Home | Current Version | Previous Version | Text Only | Print | Product List | Glossary On
Versions: 1 2 3 4 5 6 7 8 9 10 11 12 13 14
000
FTUS42 TJSJ 060500
TAFNCM
TAF
TNCM 060539Z 0606/0706 09013KT P6SM SCT020
     FM061300 09017G30KT P6SM VCSH FEW020 SCT030
     FM062300 09013KT P6SM FEW020=

USA.gov is the U.S. government's official web portal to all federal, state and local government web resources and services.